sensor_id;sensor_type;location;lat;lon;timestamp;temperature;humidity
1453;DHT22;720;47.738;7.998;2023-09-19T00:00:31;16.30;99.90
1453;DHT22;720;47.738;7.998;2023-09-19T00:02:59;16.30;99.90
1453;DHT22;720;47.738;7.998;2023-09-19T00:05:27;16.30;99.90
1453;DHT22;720;47.738;7.998;2023-09-19T00:07:56;16.30;99.90
1453;DHT22;720;47.738;7.998;2023-09-19T00:10:24;16.30;99.90
1453;DHT22;720;47.738;7.998;2023-09-19T00:12:54;16.30;99.90
1453;DHT22;720;47.738;7.998;2023-09-19T00:15:23;16.30;99.90
1453;DHT22;720;47.738;7.998;2023-09-19T00:17:48;16.40;99.90
1453;DHT22;720;47.738;7.998;2023-09-19T00:20:14;16.50;99.90
1453;DHT22;720;47.738;7.998;2023-09-19T00:22:43;16.50;99.90
1453;DHT22;720;47.738;7.998;2023-09-19T00:25:09;16.60;99.90
1453;DHT22;720;47.738;7.998;2023-09-19T00:27:35;16.60;99.90
1453;DHT22;720;47.738;7.998;2023-09-19T00:30:07;16.60;99.90
1453;DHT22;720;47.738;7.998;2023-09-19T00:32:34;16.60;99.90
1453;DHT22;720;47.738;7.998;2023-09-19T00:35:00;16.60;99.90
1453;DHT22;720;47.738;7.998;2023-09-19T00:37:26;16.60;99.90
1453;DHT22;720;47.738;7.998;2023-09-19T00:39:51;16.60;99.90
1453;DHT22;720;47.738;7.998;2023-09-19T00:42:20;16.70;99.90
1453;DHT22;720;47.738;7.998;2023-09-19T00:44:46;16.60;99.90
1453;DHT22;720;47.738;7.998;2023-09-19T00:47:12;16.50;99.90
1453;DHT22;720;47.738;7.998;2023-09-19T00:49:44;16.40;99.90
1453;DHT22;720;47.738;7.998;2023-09-19T00:52:11;16.50;99.90
1453;DHT22;720;47.738;7.998;2023-09-19T00:54:37;16.50;99.90
1453;DHT22;720;47.738;7.998;2023-09-19T00:57:03;16.50;99.90
1453;DHT22;720;47.738;7.998;2023-09-19T00:59:29;16.50;99.90
1453;DHT22;720;47.738;7.998;2023-09-19T01:01:56;16.60;99.90
1453;DHT22;720;47.738;7.998;2023-09-19T01:04:22;16.60;99.90
1453;DHT22;720;47.738;7.998;2023-09-19T01:06:49;16.60;99.90
1453;DHT22;720;47.738;7.998;2023-09-19T01:09:19;16.60;99.90
1453;DHT22;720;47.738;7.998;2023-09-19T01:11:48;16.60;99.90
1453;DHT22;720;47.738;7.998;2023-09-19T01:17:00;16.50;99.90
1453;DHT22;720;47.738;7.998;2023-09-19T01:22:28;16.50;99.90
1453;DHT22;720;47.738;7.998;2023-09-19T01:28:15;16.10;99.90
1453;DHT22;720;47.738;7.998;2023-09-19T01:30:46;16.10;99.90
1453;DHT22;720;47.738;7.998;2023-09-19T01:33:12;16.10;99.90
1453;DHT22;720;47.738;7.998;2023-09-19T01:35:40;16.10;99.90
1453;DHT22;720;47.738;7.998;2023-09-19T01:38:07;16.10;99.90
1453;DHT22;720;47.738;7.998;2023-09-19T01:40:41;16.10;99.90
1453;DHT22;720;47.738;7.998;2023-09-19T01:43:30;16.20;99.90
1453;DHT22;720;47.738;7.998;2023-09-19T01:46:24;16.30;99.90
1453;DHT22;720;47.738;7.998;2023-09-19T01:49:05;16.30;99.90
1453;DHT22;720;47.738;7.998;2023-09-19T01:54:26;16.10;99.90
1453;DHT22;720;47.738;7.998;2023-09-19T01:57:17;16.10;99.90
1453;DHT22;720;47.738;7.998;2023-09-19T01:59:59;16.00;99.90
1453;DHT22;720;47.738;7.998;2023-09-19T02:02:26;16.10;99.90
1453;DHT22;720;47.738;7.998;2023-09-19T02:04:55;16.20;99.90
1453;DHT22;720;47.738;7.998;2023-09-19T02:07:20;16.20;99.90
1453;DHT22;720;47.738;7.998;2023-09-19T02:09:46;16.30;99.90
1453;DHT22;720;47.738;7.998;2023-09-19T02:12:13;16.30;99.90
1453;DHT22;720;47.738;7.998;2023-09-19T02:14:41;16.30;99.90
1453;DHT22;720;47.738;7.998;2023-09-19T02:17:06;16.30;99.90
1453;DHT22;720;47.738;7.998;2023-09-19T02:19:37;16.30;99.90
1453;DHT22;720;47.738;7.998;2023-09-19T02:22:04;16.20;99.90
1453;DHT22;720;47.738;7.998;2023-09-19T02:24:35;16.10;99.90
1453;DHT22;720;47.738;7.998;2023-09-19T02:27:01;16.10;99.90
1453;DHT22;720;47.738;7.998;2023-09-19T02:29:29;16.10;99.90
1453;DHT22;720;47.738;7.998;2023-09-19T02:31:55;16.10;99.90
1453;DHT22;720;47.738;7.998;2023-09-19T02:34:22;16.10;99.90
1453;DHT22;720;47.738;7.998;2023-09-19T02:36:47;16.20;99.90
1453;DHT22;720;47.738;7.998;2023-09-19T02:39:13;16.20;99.90
1453;DHT22;720;47.738;7.998;2023-09-19T02:41:38;16.20;99.90
1453;DHT22;720;47.738;7.998;2023-09-19T02:44:04;16.20;99.90
1453;DHT22;720;47.738;7.998;2023-09-19T02:46:33;16.10;99.90
1453;DHT22;720;47.738;7.998;2023-09-19T02:48:59;16.10;99.90
1453;DHT22;720;47.738;7.998;2023-09-19T02:51:24;16.20;99.90
1453;DHT22;720;47.738;7.998;2023-09-19T02:53:51;16.20;99.90
1453;DHT22;720;47.738;7.998;2023-09-19T02:56:20;16.30;99.90
1453;DHT22;720;47.738;7.998;2023-09-19T02:58:45;16.30;99.90
1453;DHT22;720;47.738;7.998;2023-09-19T03:01:11;16.20;99.90
1453;DHT22;720;47.738;7.998;2023-09-19T03:03:37;16.20;99.90
1453;DHT22;720;47.738;7.998;2023-09-19T03:06:07;16.20;99.90
1453;DHT22;720;47.738;7.998;2023-09-19T03:08:38;16.30;99.90
1453;DHT22;720;47.738;7.998;2023-09-19T03:11:05;16.30;99.90
1453;DHT22;720;47.738;7.998;2023-09-19T03:13:32;16.10;99.90
1453;DHT22;720;47.738;7.998;2023-09-19T03:15:58;16.00;99.90
1453;DHT22;720;47.738;7.998;2023-09-19T03:18:26;15.80;99.90
1453;DHT22;720;47.738;7.998;2023-09-19T03:20:56;15.90;99.90
1453;DHT22;720;47.738;7.998;2023-09-19T03:23:22;16.00;99.90
1453;DHT22;720;47.738;7.998;2023-09-19T03:25:48;16.00;99.90
1453;DHT22;720;47.738;7.998;2023-09-19T03:28:14;16.00;99.90
1453;DHT22;720;47.738;7.998;2023-09-19T03:30:41;16.00;99.90
1453;DHT22;720;47.738;7.998;2023-09-19T03:33:07;16.00;99.90
1453;DHT22;720;47.738;7.998;2023-09-19T03:35:33;16.00;99.90
1453;DHT22;720;47.738;7.998;2023-09-19T03:38:00;16.00;99.90
1453;DHT22;720;47.738;7.998;2023-09-19T03:40:25;16.10;99.90
1453;DHT22;720;47.738;7.998;2023-09-19T03:42:51;16.10;99.90
1453;DHT22;720;47.738;7.998;2023-09-19T03:45:17;16.10;99.90
1453;DHT22;720;47.738;7.998;2023-09-19T03:47:43;16.10;99.90
1453;DHT22;720;47.738;7.998;2023-09-19T03:50:09;16.20;99.90
1453;DHT22;720;47.738;7.998;2023-09-19T03:52:40;16.10;99.90
1453;DHT22;720;47.738;7.998;2023-09-19T03:55:06;16.00;99.90
1453;DHT22;720;47.738;7.998;2023-09-19T03:57:32;16.10;99.90
1453;DHT22;720;47.738;7.998;2023-09-19T03:59:58;16.00;99.90
1453;DHT22;720;47.738;7.998;2023-09-19T04:02:23;15.90;99.90
1453;DHT22;720;47.738;7.998;2023-09-19T04:04:50;15.80;99.90
1453;DHT22;720;47.738;7.998;2023-09-19T04:07:17;15.90;99.90
1453;DHT22;720;47.738;7.998;2023-09-19T04:09:44;15.90;99.90
1453;DHT22;720;47.738;7.998;2023-09-19T04:12:11;15.90;99.90
1453;DHT22;720;47.738;7.998;2023-09-19T04:14:37;15.90;99.90
1453;DHT22;720;47.738;7.998;2023-09-19T04:17:04;15.90;99.90
1453;DHT22;720;47.738;7.998;2023-09-19T04:19:30;15.90;99.90
1453;DHT22;720;47.738;7.998;2023-09-19T04:21:56;16.00;99.90
1453;DHT22;720;47.738;7.998;2023-09-19T04:24:22;16.00;99.90
1453;DHT22;720;47.738;7.998;2023-09-19T04:26:48;16.10;99.90
1453;DHT22;720;47.738;7.998;2023-09-19T04:29:13;16.10;99.90
1453;DHT22;720;47.738;7.998;2023-09-19T04:31:39;16.10;99.90
1453;DHT22;720;47.738;7.998;2023-09-19T04:34:06;16.10;99.90
1453;DHT22;720;47.738;7.998;2023-09-19T04:36:32;16.00;99.90
1453;DHT22;720;47.738;7.998;2023-09-19T04:38:57;16.00;99.90
1453;DHT22;720;47.738;7.998;2023-09-19T04:41:23;16.00;99.90
1453;DHT22;720;47.738;7.998;2023-09-19T04:43:49;15.90;99.90
1453;DHT22;720;47.738;7.998;2023-09-19T04:46:16;15.80;99.90
1453;DHT22;720;47.738;7.998;2023-09-19T04:48:43;15.80;99.90
1453;DHT22;720;47.738;7.998;2023-09-19T04:51:08;15.80;99.90
1453;DHT22;720;47.738;7.998;2023-09-19T04:53:35;15.80;99.90
1453;DHT22;720;47.738;7.998;2023-09-19T04:56:01;15.90;99.90
1453;DHT22;720;47.738;7.998;2023-09-19T04:58:29;15.80;99.90
1453;DHT22;720;47.738;7.998;2023-09-19T05:00:55;15.60;99.90
1453;DHT22;720;47.738;7.998;2023-09-19T05:03:21;15.70;99.90
1453;DHT22;720;47.738;7.998;2023-09-19T05:05:47;15.80;99.90
1453;DHT22;720;47.738;7.998;2023-09-19T05:08:14;15.90;99.90
1453;DHT22;720;47.738;7.998;2023-09-19T05:10:40;15.90;99.90
1453;DHT22;720;47.738;7.998;2023-09-19T05:13:06;15.90;99.90
1453;DHT22;720;47.738;7.998;2023-09-19T05:15:34;15.80;99.90
1453;DHT22;720;47.738;7.998;2023-09-19T05:18:01;15.80;99.90
1453;DHT22;720;47.738;7.998;2023-09-19T05:20:26;15.80;99.90
1453;DHT22;720;47.738;7.998;2023-09-19T05:22:59;15.80;99.90
1453;DHT22;720;47.738;7.998;2023-09-19T05:25:29;15.90;99.90
1453;DHT22;720;47.738;7.998;2023-09-19T05:27:58;15.80;99.90
1453;DHT22;720;47.738;7.998;2023-09-19T05:30:25;15.80;99.90
1453;DHT22;720;47.738;7.998;2023-09-19T05:32:53;15.60;99.90
1453;DHT22;720;47.738;7.998;2023-09-19T05:35:19;15.70;99.90
1453;DHT22;720;47.738;7.998;2023-09-19T05:37:47;15.70;99.90
1453;DHT22;720;47.738;7.998;2023-09-19T05:40:14;15.80;99.90
1453;DHT22;720;47.738;7.998;2023-09-19T05:42:40;15.90;99.90
1453;DHT22;720;47.738;7.998;2023-09-19T05:45:07;15.90;99.90
1453;DHT22;720;47.738;7.998;2023-09-19T05:47:33;16.00;99.90
1453;DHT22;720;47.738;7.998;2023-09-19T05:49:58;16.10;99.90
1453;DHT22;720;47.738;7.998;2023-09-19T05:52:25;15.90;99.90
1453;DHT22;720;47.738;7.998;2023-09-19T05:54:50;15.70;99.90
1453;DHT22;720;47.738;7.998;2023-09-19T05:57:16;15.80;99.90
1453;DHT22;720;47.738;7.998;2023-09-19T05:59:42;15.80;99.90
1453;DHT22;720;47.738;7.998;2023-09-19T06:02:08;15.80;99.90
1453;DHT22;720;47.738;7.998;2023-09-19T06:04:35;15.90;99.90
1453;DHT22;720;47.738;7.998;2023-09-19T06:07:01;16.00;99.90
1453;DHT22;720;47.738;7.998;2023-09-19T06:09:28;16.10;99.90
1453;DHT22;720;47.738;7.998;2023-09-19T06:11:54;16.20;99.90
1453;DHT22;720;47.738;7.998;2023-09-19T06:14:21;16.30;99.90
1453;DHT22;720;47.738;7.998;2023-09-19T06:16:49;16.20;99.90
1453;DHT22;720;47.738;7.998;2023-09-19T06:19:14;16.30;99.90
1453;DHT22;720;47.738;7.998;2023-09-19T06:21:40;16.20;99.90
1453;DHT22;720;47.738;7.998;2023-09-19T06:24:06;16.10;99.90
1453;DHT22;720;47.738;7.998;2023-09-19T06:26:32;16.10;99.90
1453;DHT22;720;47.738;7.998;2023-09-19T06:28:58;16.10;99.90
1453;DHT22;720;47.738;7.998;2023-09-19T06:31:25;16.20;99.90
1453;DHT22;720;47.738;7.998;2023-09-19T06:33:52;16.10;99.90
1453;DHT22;720;47.738;7.998;2023-09-19T06:36:17;16.00;99.90
1453;DHT22;720;47.738;7.998;2023-09-19T06:38:44;16.10;99.90
1453;DHT22;720;47.738;7.998;2023-09-19T06:41:10;16.30;99.90
1453;DHT22;720;47.738;7.998;2023-09-19T06:43:37;16.60;99.90
1453;DHT22;720;47.738;7.998;2023-09-19T06:46:04;16.90;99.90
1453;DHT22;720;47.738;7.998;2023-09-19T06:48:32;17.10;99.90
1453;DHT22;720;47.738;7.998;2023-09-19T06:50:59;17.40;99.90
1453;DHT22;720;47.738;7.998;2023-09-19T06:53:33;17.80;99.90
1453;DHT22;720;47.738;7.998;2023-09-19T06:56:00;18.20;99.90
1453;DHT22;720;47.738;7.998;2023-09-19T06:58:26;18.40;99.90
1453;DHT22;720;47.738;7.998;2023-09-19T07:00:51;18.70;99.90
1453;DHT22;720;47.738;7.998;2023-09-19T07:03:17;18.90;99.90
1453;DHT22;720;47.738;7.998;2023-09-19T07:05:48;19.00;99.90
1453;DHT22;720;47.738;7.998;2023-09-19T07:08:14;19.20;99.90
1453;DHT22;720;47.738;7.998;2023-09-19T07:10:42;19.30;99.90
1453;DHT22;720;47.738;7.998;2023-09-19T07:13:14;19.30;99.90
1453;DHT22;720;47.738;7.998;2023-09-19T07:15:42;19.40;99.90
1453;DHT22;720;47.738;7.998;2023-09-19T07:18:12;19.50;99.90
1453;DHT22;720;47.738;7.998;2023-09-19T07:20:40;19.60;99.90
1453;DHT22;720;47.738;7.998;2023-09-19T07:23:17;19.70;99.90
1453;DHT22;720;47.738;7.998;2023-09-19T07:25:43;19.70;99.30
1453;DHT22;720;47.738;7.998;2023-09-19T07:28:09;19.80;99.10
1453;DHT22;720;47.738;7.998;2023-09-19T07:30:38;19.90;99.00
1453;DHT22;720;47.738;7.998;2023-09-19T07:33:05;19.90;98.90
1453;DHT22;720;47.738;7.998;2023-09-19T07:35:31;20.00;98.60
1453;DHT22;720;47.738;7.998;2023-09-19T07:37:57;20.00;97.50
1453;DHT22;720;47.738;7.998;2023-09-19T07:40:24;19.90;96.90
1453;DHT22;720;47.738;7.998;2023-09-19T07:42:52;19.80;97.40
1453;DHT22;720;47.738;7.998;2023-09-19T07:45:18;19.80;97.90
1453;DHT22;720;47.738;7.998;2023-09-19T07:47:47;20.20;98.50
1453;DHT22;720;47.738;7.998;2023-09-19T07:50:14;20.80;96.70
1453;DHT22;720;47.738;7.998;2023-09-19T07:52:41;21.10;95.50
1453;DHT22;720;47.738;7.998;2023-09-19T07:55:08;21.20;94.00
1453;DHT22;720;47.738;7.998;2023-09-19T07:57:41;21.30;93.50
1453;DHT22;720;47.738;7.998;2023-09-19T08:00:08;21.20;94.00
1453;DHT22;720;47.738;7.998;2023-09-19T08:02:36;21.20;94.80
1453;DHT22;720;47.738;7.998;2023-09-19T08:05:04;21.00;94.30
1453;DHT22;720;47.738;7.998;2023-09-19T08:07:36;20.50;93.00
1453;DHT22;720;47.738;7.998;2023-09-19T08:10:03;19.60;93.30
1453;DHT22;720;47.738;7.998;2023-09-19T08:12:29;19.10;94.50
1453;DHT22;720;47.738;7.998;2023-09-19T08:14:55;18.90;94.70
1453;DHT22;720;47.738;7.998;2023-09-19T08:17:21;18.70;95.40
1453;DHT22;720;47.738;7.998;2023-09-19T08:19:50;18.60;95.10
1453;DHT22;720;47.738;7.998;2023-09-19T08:22:19;18.50;97.30
1453;DHT22;720;47.738;7.998;2023-09-19T08:24:45;18.50;97.40
1453;DHT22;720;47.738;7.998;2023-09-19T08:27:11;18.30;97.10
1453;DHT22;720;47.738;7.998;2023-09-19T08:29:38;18.20;96.60
1453;DHT22;720;47.738;7.998;2023-09-19T08:32:04;18.20;97.90
1453;DHT22;720;47.738;7.998;2023-09-19T08:34:30;18.30;97.50
1453;DHT22;720;47.738;7.998;2023-09-19T08:36:58;18.50;97.00
1453;DHT22;720;47.738;7.998;2023-09-19T08:39:24;18.60;96.70
1453;DHT22;720;47.738;7.998;2023-09-19T08:42:00;18.60;95.90
1453;DHT22;720;47.738;7.998;2023-09-19T08:44:27;18.70;96.40
1453;DHT22;720;47.738;7.998;2023-09-19T08:47:06;18.70;96.70
1453;DHT22;720;47.738;7.998;2023-09-19T08:52:25;18.70;95.80
1453;DHT22;720;47.738;7.998;2023-09-19T08:54:52;18.50;96.20
1453;DHT22;720;47.738;7.998;2023-09-19T08:57:21;18.30;96.70
1453;DHT22;720;47.738;7.998;2023-09-19T08:59:48;18.20;97.40
1453;DHT22;720;47.738;7.998;2023-09-19T09:02:15;18.00;97.20
1453;DHT22;720;47.738;7.998;2023-09-19T09:04:45;17.80;97.20
1453;DHT22;720;47.738;7.998;2023-09-19T09:07:11;17.90;96.50
1453;DHT22;720;47.738;7.998;2023-09-19T09:09:39;18.10;97.30
1453;DHT22;720;47.738;7.998;2023-09-19T09:12:12;18.30;96.50
1453;DHT22;720;47.738;7.998;2023-09-19T09:14:47;18.60;96.10
1453;DHT22;720;47.738;7.998;2023-09-19T09:17:15;18.90;96.30
1453;DHT22;720;47.738;7.998;2023-09-19T09:19:43;18.80;95.40
1453;DHT22;720;47.738;7.998;2023-09-19T09:22:10;18.70;96.90
1453;DHT22;720;47.738;7.998;2023-09-19T09:24:37;18.70;96.10
1453;DHT22;720;47.738;7.998;2023-09-19T09:27:15;18.90;96.10
1453;DHT22;720;47.738;7.998;2023-09-19T09:29:47;19.20;95.90
1453;DHT22;720;47.738;7.998;2023-09-19T09:32:28;19.30;95.40
1453;DHT22;720;47.738;7.998;2023-09-19T09:34:56;19.40;95.40
1453;DHT22;720;47.738;7.998;2023-09-19T09:37:23;19.40;96.00
1453;DHT22;720;47.738;7.998;2023-09-19T09:39:58;19.50;95.90
1453;DHT22;720;47.738;7.998;2023-09-19T09:42:32;19.80;96.10
1453;DHT22;720;47.738;7.998;2023-09-19T09:45:18;20.10;96.30
1453;DHT22;720;47.738;7.998;2023-09-19T09:47:54;20.30;95.30
1453;DHT22;720;47.738;7.998;2023-09-19T09:52:55;20.60;95.00
1453;DHT22;720;47.738;7.998;2023-09-19T09:58:26;20.90;93.40
1453;DHT22;720;47.738;7.998;2023-09-19T10:00:56;20.80;93.40
1453;DHT22;720;47.738;7.998;2023-09-19T10:03:34;21.10;94.40
1453;DHT22;720;47.738;7.998;2023-09-19T10:06:06;22.20;92.60
1453;DHT22;720;47.738;7.998;2023-09-19T10:09:03;22.90;91.00
1453;DHT22;720;47.738;7.998;2023-09-19T10:11:31;23.30;90.50
1453;DHT22;720;47.738;7.998;2023-09-19T10:14:00;24.00;91.40
1453;DHT22;720;47.738;7.998;2023-09-19T10:16:30;24.70;84.00
1453;DHT22;720;47.738;7.998;2023-09-19T10:18:59;25.00;85.10
1453;DHT22;720;47.738;7.998;2023-09-19T10:21:28;25.50;84.40
1453;DHT22;720;47.738;7.998;2023-09-19T10:23:58;25.90;83.00
1453;DHT22;720;47.738;7.998;2023-09-19T10:26:26;25.80;77.00
1453;DHT22;720;47.738;7.998;2023-09-19T10:28:56;25.10;77.60
1453;DHT22;720;47.738;7.998;2023-09-19T10:31:27;24.60;83.50
1453;DHT22;720;47.738;7.998;2023-09-19T10:33:55;24.40;80.10
1453;DHT22;720;47.738;7.998;2023-09-19T10:36:24;23.90;81.90
1453;DHT22;720;47.738;7.998;2023-09-19T10:38:55;23.70;82.90
1453;DHT22;720;47.738;7.998;2023-09-19T10:41:22;23.50;85.90
1453;DHT22;720;47.738;7.998;2023-09-19T10:43:48;23.50;85.90
1453;DHT22;720;47.738;7.998;2023-09-19T10:46:16;23.50;87.10
1453;DHT22;720;47.738;7.998;2023-09-19T10:48:42;23.30;86.70
1453;DHT22;720;47.738;7.998;2023-09-19T10:51:20;23.00;86.90
1453;DHT22;720;47.738;7.998;2023-09-19T10:54:01;22.00;88.60
1453;DHT22;720;47.738;7.998;2023-09-19T10:56:37;21.10;90.60
1453;DHT22;720;47.738;7.998;2023-09-19T10:59:15;20.50;91.90
1453;DHT22;720;47.738;7.998;2023-09-19T11:01:48;20.10;93.00
1453;DHT22;720;47.738;7.998;2023-09-19T11:07:12;20.30;94.20
1453;DHT22;720;47.738;7.998;2023-09-19T11:15:07;20.60;93.80
1453;DHT22;720;47.738;7.998;2023-09-19T11:17:38;20.70;93.20
1453;DHT22;720;47.738;7.998;2023-09-19T11:30:44;21.20;92.50
1453;DHT22;720;47.738;7.998;2023-09-19T11:33:24;20.80;91.70
1453;DHT22;720;47.738;7.998;2023-09-19T11:36:16;20.50;92.70
1453;DHT22;720;47.738;7.998;2023-09-19T11:43:53;20.80;91.70
1453;DHT22;720;47.738;7.998;2023-09-19T11:46:24;20.90;90.90
1453;DHT22;720;47.738;7.998;2023-09-19T11:48:53;20.90;91.70
1453;DHT22;720;47.738;7.998;2023-09-19T11:53:52;21.10;91.50
1453;DHT22;720;47.738;7.998;2023-09-19T11:56:24;21.20;91.00
1453;DHT22;720;47.738;7.998;2023-09-19T11:58:53;21.30;90.70
1453;DHT22;720;47.738;7.998;2023-09-19T12:01:30;21.10;90.40
1453;DHT22;720;47.738;7.998;2023-09-19T12:03:58;21.10;90.60
1453;DHT22;720;47.738;7.998;2023-09-19T12:06:28;21.10;91.60
1453;DHT22;720;47.738;7.998;2023-09-19T12:09:02;21.20;92.50
1453;DHT22;720;47.738;7.998;2023-09-19T12:11:32;21.20;91.70
1453;DHT22;720;47.738;7.998;2023-09-19T12:13:59;21.60;91.60
1453;DHT22;720;47.738;7.998;2023-09-19T12:16:27;21.90;90.60
1453;DHT22;720;47.738;7.998;2023-09-19T12:18:57;22.20;89.40
1453;DHT22;720;47.738;7.998;2023-09-19T12:24:18;22.20;88.00
1453;DHT22;720;47.738;7.998;2023-09-19T12:26:46;22.20;89.80
1453;DHT22;720;47.738;7.998;2023-09-19T12:29:19;22.20;88.50
1453;DHT22;720;47.738;7.998;2023-09-19T12:34:20;22.10;86.30
1453;DHT22;720;47.738;7.998;2023-09-19T12:36:47;21.80;87.70
1453;DHT22;720;47.738;7.998;2023-09-19T12:39:24;21.80;86.40
1453;DHT22;720;47.738;7.998;2023-09-19T12:41:51;21.80;87.10
1453;DHT22;720;47.738;7.998;2023-09-19T12:44:19;21.80;87.40
1453;DHT22;720;47.738;7.998;2023-09-19T12:46:44;21.70;87.30
1453;DHT22;720;47.738;7.998;2023-09-19T12:49:20;21.70;85.50
1453;DHT22;720;47.738;7.998;2023-09-19T12:51:46;21.30;88.80
1453;DHT22;720;47.738;7.998;2023-09-19T12:54:15;21.40;88.50
1453;DHT22;720;47.738;7.998;2023-09-19T12:56:44;21.70;86.40
1453;DHT22;720;47.738;7.998;2023-09-19T12:59:13;21.90;90.20
1453;DHT22;720;47.738;7.998;2023-09-19T13:01:42;22.10;88.70
1453;DHT22;720;47.738;7.998;2023-09-19T13:04:17;22.20;86.20
1453;DHT22;720;47.738;7.998;2023-09-19T13:06:45;22.30;87.50
1453;DHT22;720;47.738;7.998;2023-09-19T13:09:14;22.40;86.00
1453;DHT22;720;47.738;7.998;2023-09-19T13:11:40;22.20;87.00
1453;DHT22;720;47.738;7.998;2023-09-19T13:14:26;22.20;86.90
1453;DHT22;720;47.738;7.998;2023-09-19T13:17:02;22.00;84.40
1453;DHT22;720;47.738;7.998;2023-09-19T13:19:48;21.90;86.00
1453;DHT22;720;47.738;7.998;2023-09-19T13:22:43;21.80;86.50
1453;DHT22;720;47.738;7.998;2023-09-19T13:25:20;21.70;88.70
1453;DHT22;720;47.738;7.998;2023-09-19T13:28:05;21.40;92.20
1453;DHT22;720;47.738;7.998;2023-09-19T13:30:31;21.10;90.50
1453;DHT22;720;47.738;7.998;2023-09-19T13:33:08;20.80;89.90
1453;DHT22;720;47.738;7.998;2023-09-19T13:35:35;20.50;90.10
1453;DHT22;720;47.738;7.998;2023-09-19T13:38:02;20.50;96.50
1453;DHT22;720;47.738;7.998;2023-09-19T13:40:27;20.50;90.90
1453;DHT22;720;47.738;7.998;2023-09-19T13:42:56;20.40;91.10
1453;DHT22;720;47.738;7.998;2023-09-19T13:45:22;20.10;91.30
1453;DHT22;720;47.738;7.998;2023-09-19T13:47:50;20.30;99.90
1453;DHT22;720;47.738;7.998;2023-09-19T13:50:15;20.20;92.10
1453;DHT22;720;47.738;7.998;2023-09-19T13:52:42;20.10;91.90
1453;DHT22;720;47.738;7.998;2023-09-19T13:55:08;20.30;92.50
1453;DHT22;720;47.738;7.998;2023-09-19T13:57:34;20.20;95.50
1453;DHT22;720;47.738;7.998;2023-09-19T13:59:59;20.40;91.60
1453;DHT22;720;47.738;7.998;2023-09-19T14:02:25;20.50;93.60
1453;DHT22;720;47.738;7.998;2023-09-19T14:04:51;20.60;92.00
1453;DHT22;720;47.738;7.998;2023-09-19T14:07:17;20.70;93.20
1453;DHT22;720;47.738;7.998;2023-09-19T14:09:44;20.80;92.70
1453;DHT22;720;47.738;7.998;2023-09-19T14:12:10;20.70;91.20
1453;DHT22;720;47.738;7.998;2023-09-19T14:14:36;20.60;90.00
1453;DHT22;720;47.738;7.998;2023-09-19T14:17:04;20.70;91.30
1453;DHT22;720;47.738;7.998;2023-09-19T14:19:32;20.80;90.60
1453;DHT22;720;47.738;7.998;2023-09-19T14:21:58;20.80;90.70
1453;DHT22;720;47.738;7.998;2023-09-19T14:24:24;20.90;90.70
1453;DHT22;720;47.738;7.998;2023-09-19T14:26:50;21.00;89.10
1453;DHT22;720;47.738;7.998;2023-09-19T14:29:16;20.90;90.30
1453;DHT22;720;47.738;7.998;2023-09-19T14:31:42;20.80;92.40
1453;DHT22;720;47.738;7.998;2023-09-19T14:34:08;20.60;92.10
1453;DHT22;720;47.738;7.998;2023-09-19T14:36:38;20.50;90.80
1453;DHT22;720;47.738;7.998;2023-09-19T14:39:06;20.40;90.60
1453;DHT22;720;47.738;7.998;2023-09-19T14:41:33;20.60;92.20
1453;DHT22;720;47.738;7.998;2023-09-19T14:43:59;20.70;93.10
1453;DHT22;720;47.738;7.998;2023-09-19T14:46:24;20.70;93.00
1453;DHT22;720;47.738;7.998;2023-09-19T14:48:53;20.50;93.40
1453;DHT22;720;47.738;7.998;2023-09-19T14:51:19;20.40;92.50
1453;DHT22;720;47.738;7.998;2023-09-19T14:53:45;20.40;91.60
1453;DHT22;720;47.738;7.998;2023-09-19T14:56:12;20.30;94.40
1453;DHT22;720;47.738;7.998;2023-09-19T14:58:38;20.20;93.70
1453;DHT22;720;47.738;7.998;2023-09-19T15:01:06;20.00;95.20
1453;DHT22;720;47.738;7.998;2023-09-19T15:03:32;19.90;95.80
1453;DHT22;720;47.738;7.998;2023-09-19T15:06:05;19.80;96.50
1453;DHT22;720;47.738;7.998;2023-09-19T15:08:32;19.60;96.80
1453;DHT22;720;47.738;7.998;2023-09-19T15:11:00;19.60;96.50
1453;DHT22;720;47.738;7.998;2023-09-19T15:13:29;19.60;95.80
1453;DHT22;720;47.738;7.998;2023-09-19T15:16:08;19.50;94.40
1453;DHT22;720;47.738;7.998;2023-09-19T15:18:38;19.50;94.50
1453;DHT22;720;47.738;7.998;2023-09-19T15:21:05;19.50;92.90
1453;DHT22;720;47.738;7.998;2023-09-19T15:23:32;19.50;95.90
1453;DHT22;720;47.738;7.998;2023-09-19T15:26:00;19.30;96.70
1453;DHT22;720;47.738;7.998;2023-09-19T15:28:27;19.30;95.60
1453;DHT22;720;47.738;7.998;2023-09-19T15:31:04;19.20;96.80
1453;DHT22;720;47.738;7.998;2023-09-19T15:33:30;19.10;96.60
1453;DHT22;720;47.738;7.998;2023-09-19T15:36:07;18.90;96.50
1453;DHT22;720;47.738;7.998;2023-09-19T15:41:23;18.70;97.30
1453;DHT22;720;47.738;7.998;2023-09-19T15:43:49;18.50;97.70
1453;DHT22;720;47.738;7.998;2023-09-19T15:46:15;18.40;98.50
1453;DHT22;720;47.738;7.998;2023-09-19T15:48:41;18.20;99.00
1453;DHT22;720;47.738;7.998;2023-09-19T15:51:07;18.00;99.60
1453;DHT22;720;47.738;7.998;2023-09-19T15:53:51;17.90;99.90
1453;DHT22;720;47.738;7.998;2023-09-19T15:56:19;17.70;99.50
1453;DHT22;720;47.738;7.998;2023-09-19T15:58:52;17.60;99.90
1453;DHT22;720;47.738;7.998;2023-09-19T16:01:19;17.60;99.90
1453;DHT22;720;47.738;7.998;2023-09-19T16:03:49;17.50;99.90
1453;DHT22;720;47.738;7.998;2023-09-19T16:06:17;17.40;99.90
1453;DHT22;720;47.738;7.998;2023-09-19T16:08:45;17.30;99.90
1453;DHT22;720;47.738;7.998;2023-09-19T16:11:12;17.30;99.90
1453;DHT22;720;47.738;7.998;2023-09-19T16:13:39;17.40;99.70
1453;DHT22;720;47.738;7.998;2023-09-19T16:16:07;17.40;99.60
1453;DHT22;720;47.738;7.998;2023-09-19T16:18:34;17.30;99.90
1453;DHT22;720;47.738;7.998;2023-09-19T16:21:03;17.20;99.90
1453;DHT22;720;47.738;7.998;2023-09-19T16:23:30;17.20;99.90
1453;DHT22;720;47.738;7.998;2023-09-19T16:26:15;17.10;99.90
1453;DHT22;720;47.738;7.998;2023-09-19T16:28:44;17.00;99.90
1453;DHT22;720;47.738;7.998;2023-09-19T16:31:09;17.00;99.90
1453;DHT22;720;47.738;7.998;2023-09-19T16:33:39;16.90;99.90
1453;DHT22;720;47.738;7.998;2023-09-19T16:36:15;16.90;99.90
1453;DHT22;720;47.738;7.998;2023-09-19T16:38:43;17.00;99.90
1453;DHT22;720;47.738;7.998;2023-09-19T16:41:09;17.00;99.90
1453;DHT22;720;47.738;7.998;2023-09-19T16:43:35;16.90;99.90
1453;DHT22;720;47.738;7.998;2023-09-19T16:46:01;16.80;99.90
1453;DHT22;720;47.738;7.998;2023-09-19T16:48:28;16.80;99.90
1453;DHT22;720;47.738;7.998;2023-09-19T16:51:04;16.60;99.90
1453;DHT22;720;47.738;7.998;2023-09-19T16:53:31;16.60;99.90
1453;DHT22;720;47.738;7.998;2023-09-19T16:56:04;16.60;99.90
1453;DHT22;720;47.738;7.998;2023-09-19T16:58:39;16.70;99.90
1453;DHT22;720;47.738;7.998;2023-09-19T17:01:12;16.70;99.90
1453;DHT22;720;47.738;7.998;2023-09-19T17:03:40;16.60;99.90
1453;DHT22;720;47.738;7.998;2023-09-19T17:06:06;16.50;99.90
1453;DHT22;720;47.738;7.998;2023-09-19T17:08:32;16.50;99.90
1453;DHT22;720;47.738;7.998;2023-09-19T17:11:08;16.50;99.90
1453;DHT22;720;47.738;7.998;2023-09-19T17:13:38;16.60;99.90
1453;DHT22;720;47.738;7.998;2023-09-19T17:16:13;16.60;99.90
1453;DHT22;720;47.738;7.998;2023-09-19T17:18:45;16.50;99.90
1453;DHT22;720;47.738;7.998;2023-09-19T17:21:11;16.40;99.90